sensor_id;sensor_type;location;lat;lon;timestamp;temperature;humidity
4643;DHT22;2334;48.710;9.622;2023-07-09T00:00:55;21.10;99.90
4643;DHT22;2334;48.710;9.622;2023-07-09T00:03:22;21.00;99.90
4643;DHT22;2334;48.710;9.622;2023-07-09T00:05:49;20.90;99.90
4643;DHT22;2334;48.710;9.622;2023-07-09T00:08:25;20.90;99.90
4643;DHT22;2334;48.710;9.622;2023-07-09T00:10:53;20.90;99.90
4643;DHT22;2334;48.710;9.622;2023-07-09T00:13:22;20.70;99.90
4643;DHT22;2334;48.710;9.622;2023-07-09T00:15:50;20.60;99.90
4643;DHT22;2334;48.710;9.622;2023-07-09T00:18:17;20.50;99.90
4643;DHT22;2334;48.710;9.622;2023-07-09T00:20:44;20.40;99.90
4643;DHT22;2334;48.710;9.622;2023-07-09T00:23:13;20.30;99.90
4643;DHT22;2334;48.710;9.622;2023-07-09T00:25:42;20.30;99.90
4643;DHT22;2334;48.710;9.622;2023-07-09T00:28:13;20.40;99.90
4643;DHT22;2334;48.710;9.622;2023-07-09T00:30:42;20.40;99.90
4643;DHT22;2334;48.710;9.622;2023-07-09T00:33:11;20.40;99.90
4643;DHT22;2334;48.710;9.622;2023-07-09T00:35:39;20.40;99.90
4643;DHT22;2334;48.710;9.622;2023-07-09T00:38:12;20.40;99.90
4643;DHT22;2334;48.710;9.622;2023-07-09T00:40:46;20.50;99.90
4643;DHT22;2334;48.710;9.622;2023-07-09T00:43:15;20.50;99.90
4643;DHT22;2334;48.710;9.622;2023-07-09T00:45:44;20.50;99.90
4643;DHT22;2334;48.710;9.622;2023-07-09T00:48:14;20.50;99.90
4643;DHT22;2334;48.710;9.622;2023-07-09T00:50:48;20.40;99.90
4643;DHT22;2334;48.710;9.622;2023-07-09T00:53:19;20.30;99.90
4643;DHT22;2334;48.710;9.622;2023-07-09T00:55:53;20.30;99.90
4643;DHT22;2334;48.710;9.622;2023-07-09T00:58:22;20.30;99.90
4643;DHT22;2334;48.710;9.622;2023-07-09T01:00:56;20.10;99.90
4643;DHT22;2334;48.710;9.622;2023-07-09T01:03:28;20.00;99.90
4643;DHT22;2334;48.710;9.622;2023-07-09T01:05:57;20.10;99.90
4643;DHT22;2334;48.710;9.622;2023-07-09T01:08:24;20.00;99.90
4643;DHT22;2334;48.710;9.622;2023-07-09T01:10:56;20.10;99.90
4643;DHT22;2334;48.710;9.622;2023-07-09T01:13:24;20.10;99.90
4643;DHT22;2334;48.710;9.622;2023-07-09T01:15:54;20.00;99.90
4643;DHT22;2334;48.710;9.622;2023-07-09T01:18:22;20.00;99.90
4643;DHT22;2334;48.710;9.622;2023-07-09T01:20:50;19.90;99.90
4643;DHT22;2334;48.710;9.622;2023-07-09T01:23:19;19.90;99.90
4643;DHT22;2334;48.710;9.622;2023-07-09T01:25:48;19.70;99.90
4643;DHT22;2334;48.710;9.622;2023-07-09T01:28:20;19.70;99.90
4643;DHT22;2334;48.710;9.622;2023-07-09T01:30:48;19.50;99.90
4643;DHT22;2334;48.710;9.622;2023-07-09T01:33:20;19.50;99.90
4643;DHT22;2334;48.710;9.622;2023-07-09T01:35:47;19.50;99.90
4643;DHT22;2334;48.710;9.622;2023-07-09T01:38:14;19.50;99.90
4643;DHT22;2334;48.710;9.622;2023-07-09T01:40:43;19.60;99.90
4643;DHT22;2334;48.710;9.622;2023-07-09T01:43:12;19.60;99.90
4643;DHT22;2334;48.710;9.622;2023-07-09T01:45:38;19.60;99.90
4643;DHT22;2334;48.710;9.622;2023-07-09T01:48:07;19.50;99.90
4643;DHT22;2334;48.710;9.622;2023-07-09T01:50:41;19.40;99.90
4643;DHT22;2334;48.710;9.622;2023-07-09T01:53:09;19.40;99.90
4643;DHT22;2334;48.710;9.622;2023-07-09T01:55:36;19.40;99.90
4643;DHT22;2334;48.710;9.622;2023-07-09T01:58:04;19.40;99.90
4643;DHT22;2334;48.710;9.622;2023-07-09T02:00:33;19.40;99.90
4643;DHT22;2334;48.710;9.622;2023-07-09T02:03:01;19.40;99.90
4643;DHT22;2334;48.710;9.622;2023-07-09T02:05:31;19.40;99.90
4643;DHT22;2334;48.710;9.622;2023-07-09T02:07:58;19.40;99.90
4643;DHT22;2334;48.710;9.622;2023-07-09T02:10:25;19.30;99.90
4643;DHT22;2334;48.710;9.622;2023-07-09T02:12:52;19.20;99.90
4643;DHT22;2334;48.710;9.622;2023-07-09T02:15:21;19.20;99.90
4643;DHT22;2334;48.710;9.622;2023-07-09T02:17:48;19.10;99.90
4643;DHT22;2334;48.710;9.622;2023-07-09T02:20:15;19.20;99.90
4643;DHT22;2334;48.710;9.622;2023-07-09T02:22:42;19.10;99.90
4643;DHT22;2334;48.710;9.622;2023-07-09T02:25:09;19.10;99.90
4643;DHT22;2334;48.710;9.622;2023-07-09T02:27:36;19.10;99.90
4643;DHT22;2334;48.710;9.622;2023-07-09T02:30:05;19.00;99.90
4643;DHT22;2334;48.710;9.622;2023-07-09T02:32:34;19.00;99.90
4643;DHT22;2334;48.710;9.622;2023-07-09T02:35:00;18.90;99.90
4643;DHT22;2334;48.710;9.622;2023-07-09T02:37:27;18.90;99.90
4643;DHT22;2334;48.710;9.622;2023-07-09T02:39:54;18.80;99.90
4643;DHT22;2334;48.710;9.622;2023-07-09T02:42:22;18.80;99.90
4643;DHT22;2334;48.710;9.622;2023-07-09T02:44:49;18.80;99.90
4643;DHT22;2334;48.710;9.622;2023-07-09T02:47:17;18.80;99.90
4643;DHT22;2334;48.710;9.622;2023-07-09T02:49:45;18.80;99.90
4643;DHT22;2334;48.710;9.622;2023-07-09T02:52:12;18.80;99.90
4643;DHT22;2334;48.710;9.622;2023-07-09T02:54:39;18.70;99.90
4643;DHT22;2334;48.710;9.622;2023-07-09T02:57:06;18.70;99.90
4643;DHT22;2334;48.710;9.622;2023-07-09T02:59:33;18.70;99.90
4643;DHT22;2334;48.710;9.622;2023-07-09T03:02:01;18.70;99.90
4643;DHT22;2334;48.710;9.622;2023-07-09T03:04:28;18.70;99.90
4643;DHT22;2334;48.710;9.622;2023-07-09T03:06:58;18.60;99.90
4643;DHT22;2334;48.710;9.622;2023-07-09T03:09:25;18.60;99.90
4643;DHT22;2334;48.710;9.622;2023-07-09T03:11:52;18.60;99.90
4643;DHT22;2334;48.710;9.622;2023-07-09T03:14:19;18.70;99.90
4643;DHT22;2334;48.710;9.622;2023-07-09T03:16:46;18.70;99.90
4643;DHT22;2334;48.710;9.622;2023-07-09T03:19:13;18.70;99.90
4643;DHT22;2334;48.710;9.622;2023-07-09T03:21:40;18.70;99.90
4643;DHT22;2334;48.710;9.622;2023-07-09T03:24:08;18.60;99.90
4643;DHT22;2334;48.710;9.622;2023-07-09T03:26:35;18.50;99.90
4643;DHT22;2334;48.710;9.622;2023-07-09T03:29:02;18.50;99.90
4643;DHT22;2334;48.710;9.622;2023-07-09T03:31:30;18.40;99.90
4643;DHT22;2334;48.710;9.622;2023-07-09T03:34:00;18.40;99.90
4643;DHT22;2334;48.710;9.622;2023-07-09T03:36:27;18.40;99.90
4643;DHT22;2334;48.710;9.622;2023-07-09T03:38:54;18.40;99.90
4643;DHT22;2334;48.710;9.622;2023-07-09T03:41:23;18.40;99.90
4643;DHT22;2334;48.710;9.622;2023-07-09T03:43:50;18.40;99.90
4643;DHT22;2334;48.710;9.622;2023-07-09T03:46:19;18.50;99.90
4643;DHT22;2334;48.710;9.622;2023-07-09T03:48:45;18.50;99.90
4643;DHT22;2334;48.710;9.622;2023-07-09T03:51:13;18.50;99.90
4643;DHT22;2334;48.710;9.622;2023-07-09T03:53:40;18.50;99.90
4643;DHT22;2334;48.710;9.622;2023-07-09T03:56:07;18.50;99.90
4643;DHT22;2334;48.710;9.622;2023-07-09T03:58:35;18.50;99.90
4643;DHT22;2334;48.710;9.622;2023-07-09T04:01:02;18.50;99.90
4643;DHT22;2334;48.710;9.622;2023-07-09T04:03:29;18.40;99.90
4643;DHT22;2334;48.710;9.622;2023-07-09T04:05:56;18.40;99.90
4643;DHT22;2334;48.710;9.622;2023-07-09T04:08:23;18.40;99.90
4643;DHT22;2334;48.710;9.622;2023-07-09T04:10:53;18.40;99.90
4643;DHT22;2334;48.710;9.622;2023-07-09T04:13:20;18.40;99.90
4643;DHT22;2334;48.710;9.622;2023-07-09T04:15:48;18.40;99.90
4643;DHT22;2334;48.710;9.622;2023-07-09T04:18:15;18.40;99.90
4643;DHT22;2334;48.710;9.622;2023-07-09T04:20:42;18.30;99.90
4643;DHT22;2334;48.710;9.622;2023-07-09T04:23:09;18.30;99.90
4643;DHT22;2334;48.710;9.622;2023-07-09T04:25:37;18.30;99.90
4643;DHT22;2334;48.710;9.622;2023-07-09T04:28:05;18.30;99.90
4643;DHT22;2334;48.710;9.622;2023-07-09T04:30:32;18.30;99.90
4643;DHT22;2334;48.710;9.622;2023-07-09T04:33:00;18.30;99.90
4643;DHT22;2334;48.710;9.622;2023-07-09T04:35:27;18.30;99.90
4643;DHT22;2334;48.710;9.622;2023-07-09T04:37:54;18.40;99.90
4643;DHT22;2334;48.710;9.622;2023-07-09T04:40:20;18.40;99.90
4643;DHT22;2334;48.710;9.622;2023-07-09T04:42:47;18.50;99.90
4643;DHT22;2334;48.710;9.622;2023-07-09T04:45:14;18.50;99.90
4643;DHT22;2334;48.710;9.622;2023-07-09T04:47:41;18.50;99.90
4643;DHT22;2334;48.710;9.622;2023-07-09T04:50:10;18.50;99.90
4643;DHT22;2334;48.710;9.622;2023-07-09T04:52:39;18.60;99.90
4643;DHT22;2334;48.710;9.622;2023-07-09T04:55:06;18.60;99.90
4643;DHT22;2334;48.710;9.622;2023-07-09T04:57:34;18.60;99.90
4643;DHT22;2334;48.710;9.622;2023-07-09T05:00:01;18.70;99.90
4643;DHT22;2334;48.710;9.622;2023-07-09T05:02:30;18.90;99.90
4643;DHT22;2334;48.710;9.622;2023-07-09T05:04:57;19.00;99.90
4643;DHT22;2334;48.710;9.622;2023-07-09T05:07:25;19.00;99.90
4643;DHT22;2334;48.710;9.622;2023-07-09T05:09:52;19.10;99.90
4643;DHT22;2334;48.710;9.622;2023-07-09T05:12:19;19.20;99.90
4643;DHT22;2334;48.710;9.622;2023-07-09T05:14:46;19.30;99.90
4643;DHT22;2334;48.710;9.622;2023-07-09T05:17:13;19.40;99.90
4643;DHT22;2334;48.710;9.622;2023-07-09T05:19:40;19.40;99.90
4643;DHT22;2334;48.710;9.622;2023-07-09T05:22:07;19.60;99.90
4643;DHT22;2334;48.710;9.622;2023-07-09T05:24:35;19.80;99.90
4643;DHT22;2334;48.710;9.622;2023-07-09T05:27:03;19.90;99.90
4643;DHT22;2334;48.710;9.622;2023-07-09T05:29:30;20.00;99.90
4643;DHT22;2334;48.710;9.622;2023-07-09T05:31:57;20.10;99.90
4643;DHT22;2334;48.710;9.622;2023-07-09T05:34:24;20.20;99.90
4643;DHT22;2334;48.710;9.622;2023-07-09T05:36:51;20.40;99.90
4643;DHT22;2334;48.710;9.622;2023-07-09T05:39:18;20.50;99.90
4643;DHT22;2334;48.710;9.622;2023-07-09T05:41:46;20.60;99.90
4643;DHT22;2334;48.710;9.622;2023-07-09T05:44:13;20.80;99.90
4643;DHT22;2334;48.710;9.622;2023-07-09T05:46:40;20.80;99.90
4643;DHT22;2334;48.710;9.622;2023-07-09T05:49:07;20.90;99.90
4643;DHT22;2334;48.710;9.622;2023-07-09T05:51:34;21.00;99.90
4643;DHT22;2334;48.710;9.622;2023-07-09T05:54:01;21.20;99.90
4643;DHT22;2334;48.710;9.622;2023-07-09T05:56:28;21.30;99.90
4643;DHT22;2334;48.710;9.622;2023-07-09T05:58:56;21.30;99.90
4643;DHT22;2334;48.710;9.622;2023-07-09T06:01:24;21.40;99.90
4643;DHT22;2334;48.710;9.622;2023-07-09T06:03:52;21.50;99.90
4643;DHT22;2334;48.710;9.622;2023-07-09T06:06:19;21.50;99.90
4643;DHT22;2334;48.710;9.622;2023-07-09T06:08:47;21.60;99.90
4643;DHT22;2334;48.710;9.622;2023-07-09T06:11:16;21.70;99.90
4643;DHT22;2334;48.710;9.622;2023-07-09T06:13:44;21.80;99.90
4643;DHT22;2334;48.710;9.622;2023-07-09T06:16:12;21.90;99.90
4643;DHT22;2334;48.710;9.622;2023-07-09T06:18:39;22.00;99.90
4643;DHT22;2334;48.710;9.622;2023-07-09T06:21:06;22.10;99.90
4643;DHT22;2334;48.710;9.622;2023-07-09T06:23:35;22.30;99.90
4643;DHT22;2334;48.710;9.622;2023-07-09T06:26:02;22.30;99.90
4643;DHT22;2334;48.710;9.622;2023-07-09T06:28:29;22.50;99.90
4643;DHT22;2334;48.710;9.622;2023-07-09T06:30:57;22.50;99.90
4643;DHT22;2334;48.710;9.622;2023-07-09T06:33:26;22.60;99.90
4643;DHT22;2334;48.710;9.622;2023-07-09T06:35:55;22.80;99.90
4643;DHT22;2334;48.710;9.622;2023-07-09T06:38:22;23.00;99.90
4643;DHT22;2334;48.710;9.622;2023-07-09T06:40:49;23.30;99.90
4643;DHT22;2334;48.710;9.622;2023-07-09T06:43:16;23.50;99.90
4643;DHT22;2334;48.710;9.622;2023-07-09T06:45:50;23.60;99.90
4643;DHT22;2334;48.710;9.622;2023-07-09T06:48:17;23.80;99.90
4643;DHT22;2334;48.710;9.622;2023-07-09T06:50:47;24.00;99.90
4643;DHT22;2334;48.710;9.622;2023-07-09T06:53:14;24.10;99.90
4643;DHT22;2334;48.710;9.622;2023-07-09T06:55:41;24.10;99.90
4643;DHT22;2334;48.710;9.622;2023-07-09T06:58:08;24.40;99.90
4643;DHT22;2334;48.710;9.622;2023-07-09T07:00:35;24.50;99.90
4643;DHT22;2334;48.710;9.622;2023-07-09T07:03:02;24.70;99.90
4643;DHT22;2334;48.710;9.622;2023-07-09T07:05:30;24.90;99.90
4643;DHT22;2334;48.710;9.622;2023-07-09T07:07:59;25.10;99.90
4643;DHT22;2334;48.710;9.622;2023-07-09T07:10:26;25.20;99.90
4643;DHT22;2334;48.710;9.622;2023-07-09T07:12:53;25.30;99.90
4643;DHT22;2334;48.710;9.622;2023-07-09T07:15:20;25.40;99.90
4643;DHT22;2334;48.710;9.622;2023-07-09T07:17:47;25.60;99.90
4643;DHT22;2334;48.710;9.622;2023-07-09T07:20:15;25.80;99.90
4643;DHT22;2334;48.710;9.622;2023-07-09T07:22:43;25.90;99.90
4643;DHT22;2334;48.710;9.622;2023-07-09T07:25:11;26.00;99.90
4643;DHT22;2334;48.710;9.622;2023-07-09T07:27:38;26.30;99.90
4643;DHT22;2334;48.710;9.622;2023-07-09T07:30:07;26.30;99.90
4643;DHT22;2334;48.710;9.622;2023-07-09T07:32:36;26.60;99.90
4643;DHT22;2334;48.710;9.622;2023-07-09T07:35:04;26.50;99.90
4643;DHT22;2334;48.710;9.622;2023-07-09T07:37:31;26.90;99.90
4643;DHT22;2334;48.710;9.622;2023-07-09T07:39:58;27.00;99.90
4643;DHT22;2334;48.710;9.622;2023-07-09T07:42:27;27.30;99.90
4643;DHT22;2334;48.710;9.622;2023-07-09T07:44:54;27.50;99.90
4643;DHT22;2334;48.710;9.622;2023-07-09T07:47:20;27.60;99.90
4643;DHT22;2334;48.710;9.622;2023-07-09T07:49:47;27.60;99.90
4643;DHT22;2334;48.710;9.622;2023-07-09T07:52:14;28.00;99.90
4643;DHT22;2334;48.710;9.622;2023-07-09T07:54:41;28.20;99.90
4643;DHT22;2334;48.710;9.622;2023-07-09T07:57:08;28.30;99.90
4643;DHT22;2334;48.710;9.622;2023-07-09T07:59:38;28.30;99.90
4643;DHT22;2334;48.710;9.622;2023-07-09T08:02:08;28.20;99.90
4643;DHT22;2334;48.710;9.622;2023-07-09T08:04:37;28.60;99.90
4643;DHT22;2334;48.710;9.622;2023-07-09T08:07:04;28.70;99.90
4643;DHT22;2334;48.710;9.622;2023-07-09T08:09:33;28.60;99.90
4643;DHT22;2334;48.710;9.622;2023-07-09T08:12:00;28.80;99.90
4643;DHT22;2334;48.710;9.622;2023-07-09T08:14:30;29.10;99.90
4643;DHT22;2334;48.710;9.622;2023-07-09T08:16:59;29.20;99.90
4643;DHT22;2334;48.710;9.622;2023-07-09T08:19:25;29.60;99.90
4643;DHT22;2334;48.710;9.622;2023-07-09T08:21:52;29.70;99.90
4643;DHT22;2334;48.710;9.622;2023-07-09T08:24:19;29.90;99.90
4643;DHT22;2334;48.710;9.622;2023-07-09T08:26:46;30.10;99.90
4643;DHT22;2334;48.710;9.622;2023-07-09T08:29:13;30.00;99.90
4643;DHT22;2334;48.710;9.622;2023-07-09T08:31:40;30.20;99.90
4643;DHT22;2334;48.710;9.622;2023-07-09T08:34:08;30.40;99.90
4643;DHT22;2334;48.710;9.622;2023-07-09T08:36:35;30.10;99.90
4643;DHT22;2334;48.710;9.622;2023-07-09T08:39:03;30.20;99.90
4643;DHT22;2334;48.710;9.622;2023-07-09T08:41:39;30.40;99.90
4643;DHT22;2334;48.710;9.622;2023-07-09T08:44:30;30.70;99.90
4643;DHT22;2334;48.710;9.622;2023-07-09T08:47:05;30.80;99.90
4643;DHT22;2334;48.710;9.622;2023-07-09T08:49:47;31.20;99.90
4643;DHT22;2334;48.710;9.622;2023-07-09T08:52:23;31.20;99.90
4643;DHT22;2334;48.710;9.622;2023-07-09T08:54:54;31.20;99.90
4643;DHT22;2334;48.710;9.622;2023-07-09T08:57:24;31.20;99.90
4643;DHT22;2334;48.710;9.622;2023-07-09T08:59:57;31.40;99.90
4643;DHT22;2334;48.710;9.622;2023-07-09T09:02:33;31.50;99.90
4643;DHT22;2334;48.710;9.622;2023-07-09T09:05:04;31.70;99.90
4643;DHT22;2334;48.710;9.622;2023-07-09T09:07:39;31.90;99.80
4643;DHT22;2334;48.710;9.622;2023-07-09T09:10:12;31.80;99.30
4643;DHT22;2334;48.710;9.622;2023-07-09T09:12:48;32.00;99.00
4643;DHT22;2334;48.710;9.622;2023-07-09T09:15:20;32.00;99.30
4643;DHT22;2334;48.710;9.622;2023-07-09T09:17:53;32.30;98.10
4643;DHT22;2334;48.710;9.622;2023-07-09T09:20:22;32.40;98.60
4643;DHT22;2334;48.710;9.622;2023-07-09T09:22:53;32.60;97.40
4643;DHT22;2334;48.710;9.622;2023-07-09T09:25:24;32.50;96.60
4643;DHT22;2334;48.710;9.622;2023-07-09T09:27:54;32.60;97.10
4643;DHT22;2334;48.710;9.622;2023-07-09T09:30:22;33.00;97.30
4643;DHT22;2334;48.710;9.622;2023-07-09T09:32:53;33.50;95.10
4643;DHT22;2334;48.710;9.622;2023-07-09T09:35:27;33.50;94.90
4643;DHT22;2334;48.710;9.622;2023-07-09T09:37:56;33.80;93.30
4643;DHT22;2334;48.710;9.622;2023-07-09T09:40:24;34.20;92.80
4643;DHT22;2334;48.710;9.622;2023-07-09T09:42:54;34.20;93.00
4643;DHT22;2334;48.710;9.622;2023-07-09T09:45:26;34.40;92.10
4643;DHT22;2334;48.710;9.622;2023-07-09T09:47:59;34.50;91.90
4643;DHT22;2334;48.710;9.622;2023-07-09T09:50:31;34.60;91.70
4643;DHT22;2334;48.710;9.622;2023-07-09T09:52:59;34.50;91.40
4643;DHT22;2334;48.710;9.622;2023-07-09T09:55:29;34.60;90.80
4643;DHT22;2334;48.710;9.622;2023-07-09T09:57:56;34.40;90.90
4643;DHT22;2334;48.710;9.622;2023-07-09T10:00:25;34.20;90.60
4643;DHT22;2334;48.710;9.622;2023-07-09T10:02:57;34.20;90.60
4643;DHT22;2334;48.710;9.622;2023-07-09T10:05:31;34.50;87.10
4643;DHT22;2334;48.710;9.622;2023-07-09T10:08:03;34.40;87.00
4643;DHT22;2334;48.710;9.622;2023-07-09T10:10:32;34.80;86.50
4643;DHT22;2334;48.710;9.622;2023-07-09T10:13:05;35.10;85.30
4643;DHT22;2334;48.710;9.622;2023-07-09T10:15:40;35.30;85.10
4643;DHT22;2334;48.710;9.622;2023-07-09T10:18:19;35.60;84.90
4643;DHT22;2334;48.710;9.622;2023-07-09T10:21:01;35.80;84.40
4643;DHT22;2334;48.710;9.622;2023-07-09T10:23:34;35.80;84.70
4643;DHT22;2334;48.710;9.622;2023-07-09T10:26:09;36.10;86.10
4643;DHT22;2334;48.710;9.622;2023-07-09T10:28:55;36.20;83.40
4643;DHT22;2334;48.710;9.622;2023-07-09T10:31:30;36.50;82.50
4643;DHT22;2334;48.710;9.622;2023-07-09T10:34:21;36.60;80.90
4643;DHT22;2334;48.710;9.622;2023-07-09T10:37:17;36.50;81.10
4643;DHT22;2334;48.710;9.622;2023-07-09T10:39:48;36.60;80.50
4643;DHT22;2334;48.710;9.622;2023-07-09T10:42:21;36.60;80.30
4643;DHT22;2334;48.710;9.622;2023-07-09T10:44:56;37.00;80.40
4643;DHT22;2334;48.710;9.622;2023-07-09T10:47:30;37.10;80.80
4643;DHT22;2334;48.710;9.622;2023-07-09T10:49:59;37.30;79.30
4643;DHT22;2334;48.710;9.622;2023-07-09T10:52:30;37.40;78.40
4643;DHT22;2334;48.710;9.622;2023-07-09T10:55:03;37.40;78.10
4643;DHT22;2334;48.710;9.622;2023-07-09T10:57:38;37.60;78.30
4643;DHT22;2334;48.710;9.622;2023-07-09T11:00:12;37.80;78.80
4643;DHT22;2334;48.710;9.622;2023-07-09T11:02:42;37.60;76.70
4643;DHT22;2334;48.710;9.622;2023-07-09T11:05:11;37.10;77.20
4643;DHT22;2334;48.710;9.622;2023-07-09T11:07:45;36.90;75.90
4643;DHT22;2334;48.710;9.622;2023-07-09T11:10:19;37.20;76.50
4643;DHT22;2334;48.710;9.622;2023-07-09T11:12:54;37.10;75.60
4643;DHT22;2334;48.710;9.622;2023-07-09T11:15:29;37.20;76.70
4643;DHT22;2334;48.710;9.622;2023-07-09T11:17:58;37.70;76.10
4643;DHT22;2334;48.710;9.622;2023-07-09T11:20:28;37.20;74.00
4643;DHT22;2334;48.710;9.622;2023-07-09T11:23:03;37.00;76.60
4643;DHT22;2334;48.710;9.622;2023-07-09T11:25:40;36.90;74.90
4643;DHT22;2334;48.710;9.622;2023-07-09T11:28:08;36.60;74.70
4643;DHT22;2334;48.710;9.622;2023-07-09T11:30:46;37.20;74.90
4643;DHT22;2334;48.710;9.622;2023-07-09T11:33:19;37.70;73.20
4643;DHT22;2334;48.710;9.622;2023-07-09T11:35:47;38.00;72.50
4643;DHT22;2334;48.710;9.622;2023-07-09T11:38:18;37.80;71.30
4643;DHT22;2334;48.710;9.622;2023-07-09T11:40:47;38.10;70.40
4643;DHT22;2334;48.710;9.622;2023-07-09T11:43:27;38.20;69.10
4643;DHT22;2334;48.710;9.622;2023-07-09T11:45:57;38.10;68.40
4643;DHT22;2334;48.710;9.622;2023-07-09T11:48:26;38.30;68.60
4643;DHT22;2334;48.710;9.622;2023-07-09T11:50:55;37.50;68.10
4643;DHT22;2334;48.710;9.622;2023-07-09T11:53:39;37.40;69.70
4643;DHT22;2334;48.710;9.622;2023-07-09T11:56:08;37.50;69.00
4643;DHT22;2334;48.710;9.622;2023-07-09T11:58:36;38.10;67.90
4643;DHT22;2334;48.710;9.622;2023-07-09T12:01:09;38.60;67.60
4643;DHT22;2334;48.710;9.622;2023-07-09T12:03:42;38.80;67.60
4643;DHT22;2334;48.710;9.622;2023-07-09T12:06:17;39.00;67.40
4643;DHT22;2334;48.710;9.622;2023-07-09T12:08:47;39.10;66.90
4643;DHT22;2334;48.710;9.622;2023-07-09T12:11:22;39.30;66.00
4643;DHT22;2334;48.710;9.622;2023-07-09T12:13:49;39.40;66.80
4643;DHT22;2334;48.710;9.622;2023-07-09T12:16:21;39.80;66.30
4643;DHT22;2334;48.710;9.622;2023-07-09T12:18:49;39.80;65.90
4643;DHT22;2334;48.710;9.622;2023-07-09T12:21:16;39.50;65.80
4643;DHT22;2334;48.710;9.622;2023-07-09T12:23:43;39.60;65.10
4643;DHT22;2334;48.710;9.622;2023-07-09T12:26:14;39.80;65.30
4643;DHT22;2334;48.710;9.622;2023-07-09T12:28:41;39.90;65.20
4643;DHT22;2334;48.710;9.622;2023-07-09T12:31:13;40.00;64.50
4643;DHT22;2334;48.710;9.622;2023-07-09T12:33:47;39.90;65.10
4643;DHT22;2334;48.710;9.622;2023-07-09T12:36:16;39.10;64.30
4643;DHT22;2334;48.710;9.622;2023-07-09T12:38:45;38.90;65.10
4643;DHT22;2334;48.710;9.622;2023-07-09T12:41:19;38.90;64.30
4643;DHT22;2334;48.710;9.622;2023-07-09T12:43:46;38.60;65.20
4643;DHT22;2334;48.710;9.622;2023-07-09T12:46:15;38.80;65.20
4643;DHT22;2334;48.710;9.622;2023-07-09T12:48:42;37.80;65.80
4643;DHT22;2334;48.710;9.622;2023-07-09T12:51:09;36.40;67.10
4643;DHT22;2334;48.710;9.622;2023-07-09T12:53:37;35.80;67.90
4643;DHT22;2334;48.710;9.622;2023-07-09T12:56:11;35.70;69.40
4643;DHT22;2334;48.710;9.622;2023-07-09T12:58:40;35.60;69.00
4643;DHT22;2334;48.710;9.622;2023-07-09T13:01:14;35.40;68.10
4643;DHT22;2334;48.710;9.622;2023-07-09T13:03:41;35.20;68.50
4643;DHT22;2334;48.710;9.622;2023-07-09T13:06:29;35.60;69.20
4643;DHT22;2334;48.710;9.622;2023-07-09T13:08:58;36.80;68.70
4643;DHT22;2334;48.710;9.622;2023-07-09T13:11:31;37.70;65.00
4643;DHT22;2334;48.710;9.622;2023-07-09T13:14:03;38.50;64.70
4643;DHT22;2334;48.710;9.622;2023-07-09T13:16:34;39.10;63.70
4643;DHT22;2334;48.710;9.622;2023-07-09T13:19:04;39.50;63.90
4643;DHT22;2334;48.710;9.622;2023-07-09T13:21:31;39.40;63.00
4643;DHT22;2334;48.710;9.622;2023-07-09T13:23:59;39.10;63.30
4643;DHT22;2334;48.710;9.622;2023-07-09T13:26:25;39.40;63.10
4643;DHT22;2334;48.710;9.622;2023-07-09T13:28:53;39.80;62.70
4643;DHT22;2334;48.710;9.622;2023-07-09T13:31:21;40.00;62.80
4643;DHT22;2334;48.710;9.622;2023-07-09T13:33:52;39.90;62.40
4643;DHT22;2334;48.710;9.622;2023-07-09T13:36:20;39.70;62.20
4643;DHT22;2334;48.710;9.622;2023-07-09T13:38:47;39.30;62.60
4643;DHT22;2334;48.710;9.622;2023-07-09T13:41:16;38.60;63.80
4643;DHT22;2334;48.710;9.622;2023-07-09T13:43:45;38.20;64.20
4643;DHT22;2334;48.710;9.622;2023-07-09T13:46:12;38.30;63.80
4643;DHT22;2334;48.710;9.622;2023-07-09T13:48:42;38.00;62.90
4643;DHT22;2334;48.710;9.622;2023-07-09T13:51:18;37.60;63.00
4643;DHT22;2334;48.710;9.622;2023-07-09T13:53:46;37.50;64.50
4643;DHT22;2334;48.710;9.622;2023-07-09T13:56:13;37.20;63.30
4643;DHT22;2334;48.710;9.622;2023-07-09T13:58:41;37.40;64.00
4643;DHT22;2334;48.710;9.622;2023-07-09T14:01:11;38.40;62.50
4643;DHT22;2334;48.710;9.622;2023-07-09T14:03:41;39.00;62.40
4643;DHT22;2334;48.710;9.622;2023-07-09T14:06:09;39.80;60.50
4643;DHT22;2334;48.710;9.622;2023-07-09T14:08:37;38.40;60.40
4643;DHT22;2334;48.710;9.622;2023-07-09T14:11:09;38.60;60.40
4643;DHT22;2334;48.710;9.622;2023-07-09T14:13:37;39.10;59.70
4643;DHT22;2334;48.710;9.622;2023-07-09T14:16:05;39.40;60.60
4643;DHT22;2334;48.710;9.622;2023-07-09T14:18:32;38.70;60.30
4643;DHT22;2334;48.710;9.622;2023-07-09T14:21:01;39.00;60.50
4643;DHT22;2334;48.710;9.622;2023-07-09T14:23:30;39.10;62.00
4643;DHT22;2334;48.710;9.622;2023-07-09T14:25:57;39.50;60.80
4643;DHT22;2334;48.710;9.622;2023-07-09T14:28:24;39.70;60.60
4643;DHT22;2334;48.710;9.622;2023-07-09T14:30:52;39.50;59.90
4643;DHT22;2334;48.710;9.622;2023-07-09T14:33:21;40.00;59.90
4643;DHT22;2334;48.710;9.622;2023-07-09T14:35:49;39.80;59.80
4643;DHT22;2334;48.710;9.622;2023-07-09T14:38:19;40.00;59.50
4643;DHT22;2334;48.710;9.622;2023-07-09T14:40:47;39.60;58.90
4643;DHT22;2334;48.710;9.622;2023-07-09T14:43:14;38.80;60.00
4643;DHT22;2334;48.710;9.622;2023-07-09T14:45:41;37.70;62.00
4643;DHT22;2334;48.710;9.622;2023-07-09T14:48:10;37.80;62.00
4643;DHT22;2334;48.710;9.622;2023-07-09T14:50:37;37.60;62.00
4643;DHT22;2334;48.710;9.622;2023-07-09T14:53:08;38.00;60.00
4643;DHT22;2334;48.710;9.622;2023-07-09T14:55:38;38.20;60.60
4643;DHT22;2334;48.710;9.622;2023-07-09T14:58:13;38.30;59.00
4643;DHT22;2334;48.710;9.622;2023-07-09T15:00:41;38.60;59.70
4643;DHT22;2334;48.710;9.622;2023-07-09T15:03:09;38.60;59.80
4643;DHT22;2334;48.710;9.622;2023-07-09T15:05:37;38.20;59.70
4643;DHT22;2334;48.710;9.622;2023-07-09T15:08:12;38.50;59.30
4643;DHT22;2334;48.710;9.622;2023-07-09T15:10:41;37.90;59.60
4643;DHT22;2334;48.710;9.622;2023-07-09T15:13:16;37.90;60.10
4643;DHT22;2334;48.710;9.622;2023-07-09T15:15:43;37.70;59.40
4643;DHT22;2334;48.710;9.622;2023-07-09T15:18:12;37.50;60.50
4643;DHT22;2334;48.710;9.622;2023-07-09T15:20:42;37.50;60.50
4643;DHT22;2334;48.710;9.622;2023-07-09T15:23:10;36.70;60.00
4643;DHT22;2334;48.710;9.622;2023-07-09T15:25:37;36.30;60.90
4643;DHT22;2334;48.710;9.622;2023-07-09T15:28:07;36.20;61.30
4643;DHT22;2334;48.710;9.622;2023-07-09T15:30:35;36.60;60.70
4643;DHT22;2334;48.710;9.622;2023-07-09T15:33:03;36.80;60.00
4643;DHT22;2334;48.710;9.622;2023-07-09T15:35:33;37.00;58.70
4643;DHT22;2334;48.710;9.622;2023-07-09T15:38:02;37.40;58.70
4643;DHT22;2334;48.710;9.622;2023-07-09T15:40:30;38.40;58.60
4643;DHT22;2334;48.710;9.622;2023-07-09T15:43:04;38.20;57.80
4643;DHT22;2334;48.710;9.622;2023-07-09T15:45:40;38.60;57.40
4643;DHT22;2334;48.710;9.622;2023-07-09T15:48:18;38.60;57.60
4643;DHT22;2334;48.710;9.622;2023-07-09T15:50:46;39.60;56.70
4643;DHT22;2334;48.710;9.622;2023-07-09T15:53:13;39.50;56.40
4643;DHT22;2334;48.710;9.622;2023-07-09T15:55:40;38.50;56.40
4643;DHT22;2334;48.710;9.622;2023-07-09T15:58:14;37.80;57.20
4643;DHT22;2334;48.710;9.622;2023-07-09T16:00:44;37.50;58.00
4643;DHT22;2334;48.710;9.622;2023-07-09T16:03:11;37.30;57.70
4643;DHT22;2334;48.710;9.622;2023-07-09T16:05:38;36.70;58.40
4643;DHT22;2334;48.710;9.622;2023-07-09T16:08:05;36.80;58.70
4643;DHT22;2334;48.710;9.622;2023-07-09T16:10:33;36.20;59.60
4643;DHT22;2334;48.710;9.622;2023-07-09T16:13:00;36.40;59.30
4643;DHT22;2334;48.710;9.622;2023-07-09T16:15:27;36.50;60.50